sensor_id;sensor_type;location;lat;lon;timestamp;temperature;humidity
29007;DHT22;16104;48.642;9.008;2022-08-11T01:01:33;21.10;35.60
29007;DHT22;16104;48.642;9.008;2022-08-11T01:07:07;21.00;36.00
29007;DHT22;16104;48.642;9.008;2022-08-11T02:03:33;20.40;37.50
29007;DHT22;16104;48.642;9.008;2022-08-11T02:08:48;20.40;37.80
29007;DHT22;16104;48.642;9.008;2022-08-11T02:13:54;20.30;38.30
29007;DHT22;16104;48.642;9.008;2022-08-11T03:00:16;19.80;39.70
29007;DHT22;16104;48.642;9.008;2022-08-11T03:05:43;19.70;39.80
29007;DHT22;16104;48.642;9.008;2022-08-11T03:10:46;19.60;40.50
29007;DHT22;16104;48.642;9.008;2022-08-11T03:22:22;19.50;40.40
29007;DHT22;16104;48.642;9.008;2022-08-11T03:27:07;19.50;40.80
29007;DHT22;16104;48.642;9.008;2022-08-11T03:32:21;19.40;40.60
29007;DHT22;16104;48.642;9.008;2022-08-11T03:43:01;19.30;40.80
29007;DHT22;16104;48.642;9.008;2022-08-11T03:48:18;19.30;40.90
29007;DHT22;16104;48.642;9.008;2022-08-11T03:53:38;19.20;41.70
29007;DHT22;16104;48.642;9.008;2022-08-11T04:04:52;19.10;41.40
29007;DHT22;16104;48.642;9.008;2022-08-11T04:10:23;19.10;41.70
29007;DHT22;16104;48.642;9.008;2022-08-11T04:26:47;19.00;42.20
29007;DHT22;16104;48.642;9.008;2022-08-11T04:53:41;18.90;42.40
29007;DHT22;16104;48.642;9.008;2022-08-11T04:59:26;18.80;42.10
29007;DHT22;16104;48.642;9.008;2022-08-11T05:05:02;18.90;42.70
29007;DHT22;16104;48.642;9.008;2022-08-11T05:15:58;18.80;43.50
29007;DHT22;16104;48.642;9.008;2022-08-11T05:21:16;18.90;43.40
29007;DHT22;16104;48.642;9.008;2022-08-11T05:26:46;18.90;43.50
29007;DHT22;16104;48.642;9.008;2022-08-11T05:32:01;19.00;44.30
29007;DHT22;16104;48.642;9.008;2022-08-11T05:37:30;19.00;43.80
29007;DHT22;16104;48.642;9.008;2022-08-11T05:42:28;19.00;44.00
29007;DHT22;16104;48.642;9.008;2022-08-11T05:47:48;19.20;44.00
29007;DHT22;16104;48.642;9.008;2022-08-11T05:53:03;19.20;44.10
29007;DHT22;16104;48.642;9.008;2022-08-11T05:58:21;19.30;43.70
29007;DHT22;16104;48.642;9.008;2022-08-11T06:03:26;19.40;43.70
29007;DHT22;16104;48.642;9.008;2022-08-11T06:08:31;19.50;44.30
29007;DHT22;16104;48.642;9.008;2022-08-11T06:13:30;19.60;44.30
29007;DHT22;16104;48.642;9.008;2022-08-11T06:18:27;19.70;44.00
29007;DHT22;16104;48.642;9.008;2022-08-11T06:23:30;19.90;44.20
29007;DHT22;16104;48.642;9.008;2022-08-11T06:28:35;20.00;44.20
29007;DHT22;16104;48.642;9.008;2022-08-11T06:43:53;20.40;42.90
29007;DHT22;16104;48.642;9.008;2022-08-11T06:48:52;20.60;43.90
29007;DHT22;16104;48.642;9.008;2022-08-11T06:53:52;20.70;43.80
29007;DHT22;16104;48.642;9.008;2022-08-11T06:58:50;20.90;43.90
29007;DHT22;16104;48.642;9.008;2022-08-11T07:04:08;21.10;43.80
29007;DHT22;16104;48.642;9.008;2022-08-11T07:09:42;21.30;44.00
29007;DHT22;16104;48.642;9.008;2022-08-11T07:14:56;21.50;43.50
29007;DHT22;16104;48.642;9.008;2022-08-11T07:20:12;21.80;43.00
29007;DHT22;16104;48.642;9.008;2022-08-11T07:25:28;22.00;42.70
29007;DHT22;16104;48.642;9.008;2022-08-11T07:30:43;22.20;42.40
29007;DHT22;16104;48.642;9.008;2022-08-11T07:35:46;22.50;43.00
29007;DHT22;16104;48.642;9.008;2022-08-11T07:40:42;22.70;42.10
29007;DHT22;16104;48.642;9.008;2022-08-11T07:45:41;23.00;41.80
29007;DHT22;16104;48.642;9.008;2022-08-11T07:50:56;23.20;41.20
29007;DHT22;16104;48.642;9.008;2022-08-11T07:56:12;23.50;40.90
29007;DHT22;16104;48.642;9.008;2022-08-11T08:01:11;23.70;40.20
29007;DHT22;16104;48.642;9.008;2022-08-11T08:06:26;24.00;40.20
29007;DHT22;16104;48.642;9.008;2022-08-11T08:11:42;24.30;39.70
29007;DHT22;16104;48.642;9.008;2022-08-11T08:16:57;24.50;39.20
29007;DHT22;16104;48.642;9.008;2022-08-11T08:22:15;24.80;38.80
29007;DHT22;16104;48.642;9.008;2022-08-11T08:27:15;25.10;37.90
29007;DHT22;16104;48.642;9.008;2022-08-11T08:32:12;25.30;37.50
29007;DHT22;16104;48.642;9.008;2022-08-11T08:37:08;25.60;37.30
29007;DHT22;16104;48.642;9.008;2022-08-11T08:42:12;25.80;36.60
29007;DHT22;16104;48.642;9.008;2022-08-11T08:47:14;26.00;36.30
29007;DHT22;16104;48.642;9.008;2022-08-11T08:52:11;26.20;35.90
29007;DHT22;16104;48.642;9.008;2022-08-11T08:57:09;26.40;35.90
29007;DHT22;16104;48.642;9.008;2022-08-11T09:02:07;26.60;35.30
29007;DHT22;16104;48.642;9.008;2022-08-11T09:07:12;26.90;35.00
29007;DHT22;16104;48.642;9.008;2022-08-11T09:12:10;27.10;34.10
29007;DHT22;16104;48.642;9.008;2022-08-11T09:17:07;27.30;34.00
29007;DHT22;16104;48.642;9.008;2022-08-11T09:22:03;27.50;33.50
29007;DHT22;16104;48.642;9.008;2022-08-11T09:27:19;27.70;33.00
29007;DHT22;16104;48.642;9.008;2022-08-11T09:32:21;28.00;32.70
29007;DHT22;16104;48.642;9.008;2022-08-11T09:37:20;28.20;31.90
29007;DHT22;16104;48.642;9.008;2022-08-11T09:42:35;28.40;32.10
29007;DHT22;16104;48.642;9.008;2022-08-11T09:47:49;28.70;32.30
29007;DHT22;16104;48.642;9.008;2022-08-11T09:52:45;28.90;31.50
29007;DHT22;16104;48.642;9.008;2022-08-11T09:57:46;29.10;30.50
29007;DHT22;16104;48.642;9.008;2022-08-11T10:03:00;29.40;29.20
29007;DHT22;16104;48.642;9.008;2022-08-11T10:07:57;29.60;29.40
29007;DHT22;16104;48.642;9.008;2022-08-11T10:13:00;29.70;29.20
29007;DHT22;16104;48.642;9.008;2022-08-11T10:18:13;29.90;28.50
29007;DHT22;16104;48.642;9.008;2022-08-11T10:23:32;30.10;28.20
29007;DHT22;16104;48.642;9.008;2022-08-11T10:28:46;30.30;27.80
29007;DHT22;16104;48.642;9.008;2022-08-11T10:33:44;30.50;28.70
29007;DHT22;16104;48.642;9.008;2022-08-11T10:38:57;30.80;27.80
29007;DHT22;16104;48.642;9.008;2022-08-11T10:43:54;31.00;27.60
29007;DHT22;16104;48.642;9.008;2022-08-11T10:48:50;31.20;27.60
29007;DHT22;16104;48.642;9.008;2022-08-11T10:53:48;31.40;26.60
29007;DHT22;16104;48.642;9.008;2022-08-11T10:59:07;31.60;25.60
29007;DHT22;16104;48.642;9.008;2022-08-11T11:04:23;31.80;26.10
29007;DHT22;16104;48.642;9.008;2022-08-11T11:09:37;32.00;25.90
29007;DHT22;16104;48.642;9.008;2022-08-11T11:14:36;32.10;24.50
29007;DHT22;16104;48.642;9.008;2022-08-11T11:19:57;32.30;24.80
29007;DHT22;16104;48.642;9.008;2022-08-11T11:25:08;32.40;25.20
29007;DHT22;16104;48.642;9.008;2022-08-11T11:30:11;32.70;24.60
29007;DHT22;16104;48.642;9.008;2022-08-11T11:35:24;32.90;24.60
29007;DHT22;16104;48.642;9.008;2022-08-11T11:40:22;33.10;24.20
29007;DHT22;16104;48.642;9.008;2022-08-11T11:45:20;33.30;24.40
29007;DHT22;16104;48.642;9.008;2022-08-11T11:50:15;33.50;24.00
29007;DHT22;16104;48.642;9.008;2022-08-11T11:55:13;33.60;23.80
29007;DHT22;16104;48.642;9.008;2022-08-11T12:00:10;33.80;23.50
29007;DHT22;16104;48.642;9.008;2022-08-11T12:05:26;34.10;23.30
29007;DHT22;16104;48.642;9.008;2022-08-11T12:10:22;34.20;23.00
29007;DHT22;16104;48.642;9.008;2022-08-11T12:15:18;34.40;23.00
29007;DHT22;16104;48.642;9.008;2022-08-11T12:20:16;34.60;23.30
29007;DHT22;16104;48.642;9.008;2022-08-11T12:25:16;34.80;22.60
29007;DHT22;16104;48.642;9.008;2022-08-11T12:30:38;34.90;22.30
29007;DHT22;16104;48.642;9.008;2022-08-11T12:35:36;35.10;22.60
29007;DHT22;16104;48.642;9.008;2022-08-11T12:40:33;35.30;22.00
29007;DHT22;16104;48.642;9.008;2022-08-11T12:45:54;35.50;21.70
29007;DHT22;16104;48.642;9.008;2022-08-11T12:51:00;35.80;20.90
29007;DHT22;16104;48.642;9.008;2022-08-11T12:56:15;36.00;20.40
29007;DHT22;16104;48.642;9.008;2022-08-11T13:01:29;36.10;21.00
29007;DHT22;16104;48.642;9.008;2022-08-11T13:06:44;36.20;20.90
29007;DHT22;16104;48.642;9.008;2022-08-11T13:11:40;36.30;20.90
29007;DHT22;16104;48.642;9.008;2022-08-11T13:16:54;36.50;20.50
29007;DHT22;16104;48.642;9.008;2022-08-11T13:22:10;36.70;20.40
29007;DHT22;16104;48.642;9.008;2022-08-11T13:27:07;36.80;20.30
29007;DHT22;16104;48.642;9.008;2022-08-11T13:32:03;37.10;20.70
29007;DHT22;16104;48.642;9.008;2022-08-11T13:37:00;37.20;19.90
29007;DHT22;16104;48.642;9.008;2022-08-11T13:41:58;37.40;19.70
29007;DHT22;16104;48.642;9.008;2022-08-11T13:47:01;37.50;19.30
29007;DHT22;16104;48.642;9.008;2022-08-11T13:51:58;37.50;19.00
29007;DHT22;16104;48.642;9.008;2022-08-11T13:56:59;37.60;19.20
29007;DHT22;16104;48.642;9.008;2022-08-11T14:01:58;37.60;18.70
29007;DHT22;16104;48.642;9.008;2022-08-11T14:06:59;37.70;19.00
29007;DHT22;16104;48.642;9.008;2022-08-11T14:12:00;37.80;19.00
29007;DHT22;16104;48.642;9.008;2022-08-11T14:17:16;37.80;18.80
29007;DHT22;16104;48.642;9.008;2022-08-11T14:22:14;37.80;19.30
29007;DHT22;16104;48.642;9.008;2022-08-11T14:27:11;37.90;19.00
29007;DHT22;16104;48.642;9.008;2022-08-11T14:32:09;37.90;18.90
29007;DHT22;16104;48.642;9.008;2022-08-11T14:37:21;37.90;18.60
29007;DHT22;16104;48.642;9.008;2022-08-11T14:42:17;38.00;18.50
29007;DHT22;16104;48.642;9.008;2022-08-11T14:47:40;38.00;18.30
29007;DHT22;16104;48.642;9.008;2022-08-11T14:52:36;37.90;18.20
29007;DHT22;16104;48.642;9.008;2022-08-11T14:57:36;37.80;18.30
29007;DHT22;16104;48.642;9.008;2022-08-11T15:02:34;37.70;17.90
29007;DHT22;16104;48.642;9.008;2022-08-11T15:07:50;37.60;18.20
29007;DHT22;16104;48.642;9.008;2022-08-11T15:12:47;37.40;19.30
29007;DHT22;16104;48.642;9.008;2022-08-11T15:17:43;37.30;18.60
29007;DHT22;16104;48.642;9.008;2022-08-11T15:22:39;37.20;18.80
29007;DHT22;16104;48.642;9.008;2022-08-11T15:27:54;37.00;18.80
29007;DHT22;16104;48.642;9.008;2022-08-11T15:33:10;37.00;18.50
29007;DHT22;16104;48.642;9.008;2022-08-11T15:38:27;36.90;18.60
29007;DHT22;16104;48.642;9.008;2022-08-11T15:43:42;36.80;18.50
29007;DHT22;16104;48.642;9.008;2022-08-11T15:49:02;36.60;18.40
29007;DHT22;16104;48.642;9.008;2022-08-11T15:54:04;36.50;18.70
29007;DHT22;16104;48.642;9.008;2022-08-11T15:59:01;36.50;18.90
29007;DHT22;16104;48.642;9.008;2022-08-11T16:04:19;36.50;19.00
29007;DHT22;16104;48.642;9.008;2022-08-11T16:09:30;36.40;18.90
29007;DHT22;16104;48.642;9.008;2022-08-11T16:14:27;36.40;18.90
29007;DHT22;16104;48.642;9.008;2022-08-11T16:19:45;36.60;18.80
29007;DHT22;16104;48.642;9.008;2022-08-11T16:24:44;36.50;18.70
29007;DHT22;16104;48.642;9.008;2022-08-11T16:29:43;36.40;18.40
29007;DHT22;16104;48.642;9.008;2022-08-11T16:34:40;36.20;18.60
29007;DHT22;16104;48.642;9.008;2022-08-11T16:39:55;36.00;18.70
29007;DHT22;16104;48.642;9.008;2022-08-11T16:44:51;35.90;18.70
29007;DHT22;16104;48.642;9.008;2022-08-11T16:50:07;35.60;18.80
29007;DHT22;16104;48.642;9.008;2022-08-11T16:55:04;35.40;18.90
29007;DHT22;16104;48.642;9.008;2022-08-11T17:00:05;35.20;19.30
29007;DHT22;16104;48.642;9.008;2022-08-11T17:05:12;35.00;19.10
29007;DHT22;16104;48.642;9.008;2022-08-11T17:10:33;34.80;19.00
29007;DHT22;16104;48.642;9.008;2022-08-11T17:15:49;34.60;18.90
29007;DHT22;16104;48.642;9.008;2022-08-11T17:26:44;34.10;19.70
29007;DHT22;16104;48.642;9.008;2022-08-11T17:31:54;34.00;19.90
29007;DHT22;16104;48.642;9.008;2022-08-11T17:37:09;33.70;19.80
29007;DHT22;16104;48.642;9.008;2022-08-11T17:42:05;33.50;19.90
29007;DHT22;16104;48.642;9.008;2022-08-11T17:47:20;33.30;20.10
29007;DHT22;16104;48.642;9.008;2022-08-11T17:52:35;33.20;20.40
29007;DHT22;16104;48.642;9.008;2022-08-11T17:57:50;33.00;20.60
29007;DHT22;16104;48.642;9.008;2022-08-11T18:03:05;32.80;20.60
29007;DHT22;16104;48.642;9.008;2022-08-11T18:08:19;32.60;20.80
29007;DHT22;16104;48.642;9.008;2022-08-11T18:13:36;32.40;21.00
29007;DHT22;16104;48.642;9.008;2022-08-11T18:18:52;32.20;21.10
29007;DHT22;16104;48.642;9.008;2022-08-11T18:24:09;31.90;21.30
29007;DHT22;16104;48.642;9.008;2022-08-11T18:29:25;31.70;21.60
29007;DHT22;16104;48.642;9.008;2022-08-11T18:34:40;31.50;21.70
29007;DHT22;16104;48.642;9.008;2022-08-11T18:40:01;31.20;22.00
29007;DHT22;16104;48.642;9.008;2022-08-11T18:45:18;30.90;22.30
29007;DHT22;16104;48.642;9.008;2022-08-11T18:50:34;30.70;22.60
29007;DHT22;16104;48.642;9.008;2022-08-11T18:55:51;30.40;22.50
29007;DHT22;16104;48.642;9.008;2022-08-11T19:01:07;30.10;22.80
29007;DHT22;16104;48.642;9.008;2022-08-11T19:06:25;29.90;23.00
29007;DHT22;16104;48.642;9.008;2022-08-11T19:11:41;29.60;23.20
29007;DHT22;16104;48.642;9.008;2022-08-11T19:16:58;29.40;23.40
29007;DHT22;16104;48.642;9.008;2022-08-11T19:22:13;29.20;23.50
29007;DHT22;16104;48.642;9.008;2022-08-11T19:27:30;29.00;23.50
29007;DHT22;16104;48.642;9.008;2022-08-11T19:32:44;28.80;23.70
29007;DHT22;16104;48.642;9.008;2022-08-11T19:38:00;28.50;24.10
29007;DHT22;16104;48.642;9.008;2022-08-11T19:43:16;28.30;24.20
29007;DHT22;16104;48.642;9.008;2022-08-11T19:48:32;28.10;24.40
29007;DHT22;16104;48.642;9.008;2022-08-11T19:53:47;27.90;24.50
29007;DHT22;16104;48.642;9.008;2022-08-11T19:59:02;27.70;24.70
29007;DHT22;16104;48.642;9.008;2022-08-11T20:04:17;27.50;25.10
29007;DHT22;16104;48.642;9.008;2022-08-11T20:09:32;27.30;25.60
29007;DHT22;16104;48.642;9.008;2022-08-11T20:14:48;27.10;25.30
29007;DHT22;16104;48.642;9.008;2022-08-11T20:20:05;26.90;25.50
29007;DHT22;16104;48.642;9.008;2022-08-11T20:25:21;26.70;26.10
29007;DHT22;16104;48.642;9.008;2022-08-11T20:30:36;26.60;26.30
29007;DHT22;16104;48.642;9.008;2022-08-11T20:35:53;26.40;27.10
29007;DHT22;16104;48.642;9.008;2022-08-11T20:41:09;26.20;27.50
29007;DHT22;16104;48.642;9.008;2022-08-11T20:46:24;26.00;27.70
29007;DHT22;16104;48.642;9.008;2022-08-11T20:51:39;25.90;27.90
29007;DHT22;16104;48.642;9.008;2022-08-11T20:56:54;25.70;28.30
29007;DHT22;16104;48.642;9.008;2022-08-11T21:02:10;25.50;28.40
29007;DHT22;16104;48.642;9.008;2022-08-11T21:07:31;25.40;28.70
29007;DHT22;16104;48.642;9.008;2022-08-11T21:12:48;25.20;29.00
29007;DHT22;16104;48.642;9.008;2022-08-11T21:18:03;25.10;29.10
29007;DHT22;16104;48.642;9.008;2022-08-11T21:23:18;24.90;29.60
29007;DHT22;16104;48.642;9.008;2022-08-11T21:28:34;24.80;30.00
29007;DHT22;16104;48.642;9.008;2022-08-11T21:33:51;24.60;29.70
29007;DHT22;16104;48.642;9.008;2022-08-11T21:39:06;24.50;29.70
29007;DHT22;16104;48.642;9.008;2022-08-11T21:44:22;24.40;30.10
29007;DHT22;16104;48.642;9.008;2022-08-11T21:49:39;24.30;30.30
29007;DHT22;16104;48.642;9.008;2022-08-11T21:54:54;24.10;30.10
29007;DHT22;16104;48.642;9.008;2022-08-11T22:00:08;24.10;29.90
29007;DHT22;16104;48.642;9.008;2022-08-11T22:05:24;24.00;30.00
29007;DHT22;16104;48.642;9.008;2022-08-11T22:10:39;23.80;30.00
29007;DHT22;16104;48.642;9.008;2022-08-11T22:15:54;23.70;30.20
29007;DHT22;16104;48.642;9.008;2022-08-11T22:21:09;23.60;30.20
29007;DHT22;16104;48.642;9.008;2022-08-11T22:26:24;23.60;30.60
29007;DHT22;16104;48.642;9.008;2022-08-11T22:31:39;23.50;30.70
29007;DHT22;16104;48.642;9.008;2022-08-11T22:36:54;23.40;30.50
29007;DHT22;16104;48.642;9.008;2022-08-11T22:42:09;23.30;30.60
29007;DHT22;16104;48.642;9.008;2022-08-11T22:47:24;23.20;30.80
29007;DHT22;16104;48.642;9.008;2022-08-11T22:52:40;23.10;30.90
29007;DHT22;16104;48.642;9.008;2022-08-11T22:57:55;23.00;31.00
29007;DHT22;16104;48.642;9.008;2022-08-11T23:03:10;22.90;31.60
29007;DHT22;16104;48.642;9.008;2022-08-11T23:08:24;22.90;32.00
29007;DHT22;16104;48.642;9.008;2022-08-11T23:13:40;22.80;31.90
29007;DHT22;16104;48.642;9.008;2022-08-11T23:18:54;22.70;32.90
29007;DHT22;16104;48.642;9.008;2022-08-11T23:24:09;22.60;33.10
29007;DHT22;16104;48.642;9.008;2022-08-11T23:29:24;22.50;33.30
29007;DHT22;16104;48.642;9.008;2022-08-11T23:34:40;22.40;33.40
29007;DHT22;16104;48.642;9.008;2022-08-11T23:39:57;22.30;33.90
29007;DHT22;16104;48.642;9.008;2022-08-11T23:45:12;22.20;34.00
29007;DHT22;16104;48.642;9.008;2022-08-11T23:50:27;22.10;33.70
29007;DHT22;16104;48.642;9.008;2022-08-11T23:55:42;22.00;33.80
